createdAt,value
2023-12-09T00:02:19.413Z,101014.41
2023-12-09T00:04:49.440Z,101036.47
2023-12-09T00:07:19.639Z,101038.97
2023-12-09T00:09:50.038Z,101044.38
2023-12-09T00:12:20.328Z,101034.41
2023-12-09T00:14:50.151Z,101045.03
2023-12-09T00:17:20.317Z,101056.88
2023-12-09T00:19:50.300Z,100883.44
2023-12-09T00:22:20.224Z,101066.84
2023-12-09T00:24:50.239Z,101068.13
2023-12-09T00:27:20.393Z,101071.03
2023-12-09T00:29:50.552Z,101070.19
2023-12-09T00:32:20.924Z,101092.66
2023-12-09T00:34:51.043Z,101086.63
2023-12-09T00:37:20.935Z,101106.16
2023-12-09T00:39:50.900Z,101081.44
2023-12-09T00:42:20.789Z,101086.81
2023-12-09T00:44:50.962Z,101106.38
2023-12-09T00:47:21.046Z,101111.81
2023-12-09T00:49:50.942Z,101118.88
2023-12-09T00:52:21.093Z,101119.50
2023-12-09T00:54:51.139Z,101126.34
2023-12-09T00:57:23.017Z,101124.25
2023-12-09T00:59:53.305Z,101122.81
2023-12-09T01:02:23.300Z,101094.31
2023-12-09T01:04:53.430Z,101134.66
2023-12-09T01:07:23.385Z,101145.91
2023-12-09T01:09:53.754Z,101144.66
2023-12-09T01:12:24.104Z,101139.66
2023-12-09T01:14:53.905Z,101147.16
2023-12-09T01:17:24.317Z,101155.50
2023-12-09T01:19:54.346Z,101149.66
2023-12-09T01:22:24.960Z,101152.97
2023-12-09T01:24:55.120Z,101147.78
2023-12-09T01:27:25.082Z,101144.66
2023-12-09T01:29:55.128Z,101153.19
2023-12-09T01:32:25.581Z,101154.25
2023-12-09T01:34:55.779Z,101150.53
2023-12-09T01:37:25.726Z,101153.41
2023-12-09T01:39:56.042Z,101100.97
2023-12-09T01:42:26.210Z,101149.25
2023-12-09T01:44:56.583Z,101151.75
2023-12-09T01:47:26.787Z,101143.44
2023-12-09T01:49:56.975Z,101149.25
2023-12-09T01:52:27.970Z,101154.66
2023-12-09T01:54:58.572Z,101139.69
2023-12-09T01:57:29.908Z,101152.56
2023-12-09T02:00:00.455Z,101139.25
2023-12-09T02:02:30.917Z,101146.31
2023-12-09T02:05:03.689Z,101156.91
2023-12-09T02:07:36.007Z,101098.88
2023-12-09T02:10:08.230Z,101146.06
2023-12-09T02:12:50.176Z,101140.84
2023-12-09T02:15:24.758Z,101142.94
2023-12-09T02:17:55.072Z,101134.16
2023-12-09T02:20:24.997Z,101132.09
2023-12-09T02:23:14.380Z,101137.91
2023-12-09T02:25:44.664Z,101115.81
2023-12-09T02:28:23.114Z,101119.78
2023-12-09T02:31:14.043Z,101081.13
2023-12-09T02:33:47.550Z,101135.00
2023-12-09T02:36:24.061Z,101141.22
2023-12-09T02:38:55.796Z,101139.53
2023-12-09T02:41:26.657Z,101123.28
2023-12-09T02:43:58.296Z,101134.53
2023-12-09T02:46:28.461Z,101133.69
2023-12-09T02:49:01.338Z,101126.19
2023-12-09T02:51:31.494Z,101133.25
2023-12-09T02:54:01.775Z,101141.56
2023-12-09T02:56:32.115Z,101137.81
2023-12-09T02:59:02.822Z,101136.78
2023-12-09T03:01:32.878Z,101133.84
2023-12-09T03:04:03.765Z,101125.72
2023-12-09T03:06:33.807Z,101128.59
2023-12-09T03:09:03.861Z,101110.28
2023-12-09T03:11:34.306Z,101120.81
2023-12-09T03:14:04.439Z,101116.66
2023-12-09T03:16:34.353Z,101119.19
2023-12-09T03:19:04.401Z,101112.94
2023-12-09T03:21:34.453Z,101110.84
2023-12-09T03:24:04.792Z,101107.91
2023-12-09T03:26:35.134Z,101092.53
2023-12-09T03:29:05.110Z,101100.81
2023-12-09T03:31:35.161Z,101088.13
2023-12-09T03:34:05.078Z,101068.75
2023-12-09T03:36:35.337Z,101060.63
2023-12-09T03:39:05.953Z,101076.66
2023-12-09T03:41:36.423Z,101057.91
2023-12-09T03:44:06.761Z,101075.81
2023-12-09T03:46:36.772Z,101065.00
2023-12-09T03:49:06.847Z,101061.03
2023-12-09T03:51:37.290Z,101052.72
2023-12-09T03:54:07.734Z,101047.44
2023-12-09T03:56:37.481Z,101038.13
2023-12-09T03:59:08.028Z,100997.38
2023-12-09T04:01:38.028Z,101027.91
2023-12-09T04:04:07.969Z,101035.78
2023-12-09T04:06:40.361Z,101035.34
2023-12-09T04:09:13.493Z,101025.75
2023-12-09T04:11:45.877Z,101031.13
2023-12-09T04:14:16.888Z,101014.50
2023-12-09T04:16:47.255Z,101013.44
2023-12-09T04:19:18.497Z,101012.16
2023-12-09T04:21:48.799Z,101000.31
2023-12-09T04:24:19.556Z,100987.41
2023-12-09T04:26:49.585Z,100993.19
2023-12-09T04:29:19.751Z,100987.53
2023-12-09T04:31:49.535Z,100969.44
2023-12-09T04:34:19.749Z,100970.88
2023-12-09T04:36:49.645Z,100969.63
2023-12-09T04:39:20.341Z,100964.03
2023-12-09T04:41:50.425Z,100967.13
2023-12-09T04:44:20.310Z,100964.72
2023-12-09T04:46:50.130Z,100951.69
2023-12-09T04:49:20.509Z,100939.00
2023-12-09T04:51:50.514Z,100944.72
2023-12-09T04:54:20.830Z,100937.63
2023-12-09T04:56:50.588Z,100938.53
2023-12-09T04:59:20.790Z,100927.84
2023-12-09T05:01:50.660Z,100925.75
2023-12-09T05:04:21.913Z,100919.25
2023-12-09T05:06:52.210Z,100922.16
2023-12-09T05:09:24.463Z,100916.50
2023-12-09T05:11:55.571Z,100908.13
2023-12-09T05:14:25.595Z,100913.84
2023-12-09T05:16:55.458Z,100913.69
2023-12-09T05:19:25.720Z,100894.75
2023-12-09T05:21:55.633Z,100887.31
2023-12-09T05:24:25.609Z,100866.06
2023-12-09T05:26:55.689Z,100868.91
2023-12-09T05:29:26.079Z,100866.34
2023-12-09T05:31:56.138Z,100860.94
2023-12-09T05:34:26.293Z,100856.44
2023-12-09T05:36:56.265Z,100846.34
2023-12-09T05:39:26.435Z,100838.34
2023-12-09T05:41:56.401Z,100834.56
2023-12-09T05:44:26.401Z,100824.06
2023-12-09T05:46:56.551Z,100820.22
2023-12-09T05:49:26.934Z,100816.44
2023-12-09T05:51:57.119Z,100807.59
2023-12-09T05:54:26.899Z,100794.34
2023-12-09T05:56:57.091Z,100802.53
2023-12-09T05:59:27.093Z,100795.00
2023-12-09T06:01:59.931Z,100787.44
2023-12-09T06:04:30.415Z,100774.94
2023-12-09T06:07:00.566Z,100779.06
2023-12-09T06:09:30.804Z,100774.22
2023-12-09T06:12:01.190Z,100780.47
2023-12-09T06:14:31.359Z,100778.97
2023-12-09T06:17:01.384Z,100772.34
2023-12-09T06:19:31.435Z,100782.84
2023-12-09T06:22:01.674Z,100769.28
2023-12-09T06:24:32.307Z,100780.75
2023-12-09T06:27:02.341Z,100770.97
2023-12-09T06:29:32.370Z,100785.53
2023-12-09T06:32:02.297Z,100787.16
2023-12-09T06:34:32.427Z,100759.72
2023-12-09T06:37:02.509Z,100782.09
2023-12-09T06:39:32.668Z,100773.38
2023-12-09T06:42:02.660Z,100779.16
2023-12-09T06:44:32.558Z,100762.84
2023-12-09T06:47:02.741Z,100742.56
2023-12-09T06:49:32.992Z,100750.69
2023-12-09T06:52:03.603Z,100754.00
2023-12-09T06:54:33.293Z,100755.66
2023-12-09T06:57:03.538Z,100755.19
2023-12-09T06:59:33.460Z,100741.81
2023-12-09T07:02:03.572Z,100746.81
2023-12-09T07:04:35.385Z,100741.47
2023-12-09T07:07:05.699Z,100737.72
2023-12-09T07:09:35.454Z,100752.59
2023-12-09T07:12:06.829Z,100751.53
2023-12-09T07:14:36.838Z,100754.22
2023-12-09T07:17:06.792Z,100756.72
2023-12-09T07:19:37.083Z,100739.84
2023-12-09T07:22:07.374Z,100756.00
2023-12-09T07:24:37.465Z,100725.44
2023-12-09T07:27:07.456Z,100743.63
2023-12-09T07:29:37.424Z,100748.44
2023-12-09T07:32:07.923Z,100750.69
2023-12-09T07:34:38.212Z,100736.66
2023-12-09T07:37:08.154Z,100742.41
2023-12-09T07:39:38.171Z,100736.06
2023-12-09T07:42:08.328Z,100738.78
2023-12-09T07:44:39.065Z,100745.25
2023-12-09T07:47:09.445Z,100729.44
2023-12-09T07:49:39.269Z,100731.78
2023-12-09T07:52:09.448Z,100715.38
2023-12-09T07:54:39.236Z,100731.31
2023-12-09T07:57:09.462Z,100731.66
2023-12-09T07:59:39.361Z,100712.06
2023-12-09T08:02:09.487Z,100712.41
2023-12-09T08:04:40.799Z,100716.78
2023-12-09T08:07:10.939Z,100714.06
2023-12-09T08:09:40.666Z,100708.63
2023-12-09T08:12:11.651Z,100716.22
2023-12-09T08:14:41.784Z,100710.44
2023-12-09T08:17:21.678Z,100716.34
2023-12-09T08:19:56.254Z,100715.75
2023-12-09T08:22:26.918Z,100712.56
2023-12-09T08:24:57.522Z,100718.13
2023-12-09T08:27:27.568Z,100709.25
2023-12-09T08:29:57.746Z,100698.28
2023-12-09T08:32:28.135Z,100700.00
2023-12-09T08:35:06.995Z,100699.91
2023-12-09T08:37:42.912Z,100705.13
2023-12-09T08:40:16.488Z,100702.88
2023-12-09T08:42:47.909Z,100702.38
2023-12-09T08:45:19.117Z,100703.66
2023-12-09T08:47:49.427Z,100707.00
2023-12-09T08:50:23.248Z,100699.94
2023-12-09T08:52:55.562Z,100706.72
2023-12-09T08:55:25.772Z,100713.69
2023-12-09T08:57:55.766Z,100705.19
2023-12-09T09:00:28.189Z,100720.09
2023-12-09T09:02:58.376Z,100718.59
2023-12-09T09:05:28.636Z,100721.78
2023-12-09T09:07:58.677Z,100719.59
2023-12-09T09:10:28.653Z,100725.84
2023-12-09T09:12:59.298Z,100729.16
2023-12-09T09:15:29.505Z,100729.97
2023-12-09T09:17:59.391Z,100715.94
2023-12-09T09:20:29.633Z,100736.22
2023-12-09T09:22:59.355Z,100740.78
2023-12-09T09:25:29.645Z,100736.41
2023-12-09T09:27:59.416Z,100743.38
2023-12-09T09:30:29.516Z,100742.66
2023-12-09T09:32:59.419Z,100747.50
2023-12-09T09:35:29.573Z,100744.19
2023-12-09T09:37:59.339Z,100751.88
2023-12-09T09:40:29.486Z,100755.88
2023-12-09T09:43:02.393Z,100740.97
2023-12-09T09:45:33.081Z,100756.94
2023-12-09T09:48:08.092Z,100767.38
2023-12-09T09:50:45.843Z,100653.50
2023-12-09T09:53:22.777Z,100769.28
2023-12-09T09:55:54.313Z,100700.66
2023-12-09T09:58:24.258Z,100748.03
2023-12-09T10:00:58.501Z,100762.09
2023-12-09T10:03:28.598Z,100770.22
2023-12-09T10:06:00.067Z,100766.09
2023-12-09T10:08:31.460Z,100772.28
2023-12-09T10:11:01.871Z,100771.63
2023-12-09T10:13:32.017Z,100775.38
2023-12-09T10:16:03.632Z,100759.56
2023-12-09T10:18:33.670Z,100769.97
2023-12-09T10:21:03.649Z,100771.28
2023-12-09T10:23:33.771Z,100773.28
2023-12-09T10:26:04.886Z,100762.16
2023-12-09T10:28:36.077Z,100768.78
2023-12-09T10:31:06.623Z,100774.53
2023-12-09T10:33:37.313Z,100770.88
2023-12-09T10:36:09.613Z,100767.81
2023-12-09T10:38:45.777Z,100758.94
2023-12-09T10:41:18.243Z,100748.81
2023-12-09T10:43:48.572Z,100758.25
2023-12-09T10:46:18.410Z,100765.31
2023-12-09T10:48:48.472Z,100765.22
2023-12-09T10:51:18.567Z,100775.00
2023-12-09T10:53:48.614Z,100772.75
2023-12-09T10:56:18.803Z,100780.28
2023-12-09T10:58:51.079Z,100783.00
2023-12-09T11:01:22.076Z,100780.06
2023-12-09T11:03:52.195Z,100783.47
2023-12-09T11:06:23.525Z,100791.28
2023-12-09T11:08:54.553Z,100794.53
2023-12-09T11:11:24.933Z,100775.66
2023-12-09T11:14:00.648Z,100793.72
2023-12-09T11:16:31.808Z,100793.25
2023-12-09T11:19:02.423Z,100796.69
2023-12-09T11:21:32.959Z,100786.50
2023-12-09T11:24:02.806Z,100799.59
2023-12-09T11:26:37.600Z,100798.69
2023-12-09T11:29:08.517Z,100810.00
2023-12-09T11:31:51.458Z,100821.84
2023-12-09T11:34:23.440Z,100765.00
2023-12-09T11:36:54.975Z,100822.22
2023-12-09T11:39:26.131Z,100830.53
2023-12-09T11:41:57.068Z,100827.81
2023-12-09T11:44:27.620Z,100825.97
2023-12-09T11:46:58.134Z,100833.38
2023-12-09T11:49:29.314Z,100832.44
2023-12-09T11:52:00.186Z,100840.09
2023-12-09T11:54:30.286Z,100828.09
2023-12-09T11:57:00.936Z,100838.06
2023-12-09T11:59:30.994Z,100850.13
2023-12-09T12:02:01.644Z,100845.97
2023-12-09T12:04:38.296Z,100848.50
2023-12-09T12:07:09.363Z,100845.13
2023-12-09T12:09:41.019Z,100855.97
2023-12-09T12:12:11.313Z,100842.88
2023-12-09T12:14:41.845Z,100849.34
2023-12-09T12:17:14.240Z,100781.72
2023-12-09T12:19:46.868Z,100843.84
2023-12-09T12:22:17.286Z,100850.13
2023-12-09T12:24:47.849Z,100849.25
2023-12-09T12:27:18.322Z,100845.13
2023-12-09T12:29:49.450Z,100846.56
2023-12-09T12:32:20.136Z,100854.31
2023-12-09T12:34:50.724Z,100855.53
2023-12-09T12:37:21.306Z,100851.75
2023-12-09T12:39:51.326Z,100858.09
2023-12-09T12:42:21.717Z,100851.63
2023-12-09T12:44:51.890Z,100843.47
2023-12-09T12:47:21.789Z,100853.50
2023-12-09T12:49:51.994Z,100848.13
2023-12-09T12:52:22.265Z,100862.47
2023-12-09T12:54:52.511Z,100858.53
2023-12-09T12:57:22.531Z,100860.84
2023-12-09T12:59:53.855Z,100868.34
2023-12-09T13:02:25.767Z,100864.38
2023-12-09T13:04:56.110Z,100878.13
2023-12-09T13:07:26.071Z,100870.41
2023-12-09T13:09:56.374Z,100870.06
2023-12-09T13:12:26.528Z,100863.97
2023-12-09T13:14:57.379Z,100867.81
2023-12-09T13:17:27.335Z,100869.97
2023-12-09T13:19:57.736Z,100876.13
2023-12-09T13:22:28.234Z,100878.53
2023-12-09T13:24:58.540Z,100878.53
2023-12-09T13:27:29.008Z,100887.63
2023-12-09T13:30:01.978Z,100898.28
2023-12-09T13:32:32.344Z,100902.63
2023-12-09T13:35:03.305Z,100879.84
2023-12-09T13:37:33.644Z,100902.19
2023-12-09T13:40:04.186Z,100886.44
2023-12-09T13:42:34.802Z,100903.72
2023-12-09T13:45:05.159Z,100911.03
2023-12-09T13:47:35.354Z,100903.84
2023-12-09T13:50:06.949Z,100902.63
2023-12-09T13:52:38.675Z,100911.38
2023-12-09T13:55:09.825Z,100920.00
2023-12-09T13:57:40.060Z,100896.94
2023-12-09T14:00:10.911Z,100906.78
2023-12-09T14:02:41.899Z,100917.28
2023-12-09T14:05:15.998Z,100894.81
2023-12-09T14:07:46.206Z,100891.06
2023-12-09T14:10:16.193Z,100914.56
2023-12-09T14:12:46.248Z,100915.63
2023-12-09T14:15:17.108Z,100912.31
2023-12-09T14:17:47.972Z,100912.31
2023-12-09T14:20:18.383Z,100880.84
2023-12-09T14:22:48.339Z,100915.63
2023-12-09T14:25:18.589Z,100903.09
2023-12-09T14:27:48.798Z,100911.25
2023-12-09T14:30:19.492Z,100909.59
2023-12-09T14:32:49.682Z,100912.31
2023-12-09T14:35:20.304Z,100903.56
2023-12-09T14:37:52.691Z,100908.69
2023-12-09T14:40:22.797Z,100910.28
2023-12-09T14:42:52.624Z,100909.44
2023-12-09T14:45:23.135Z,100906.59
2023-12-09T14:47:58.469Z,100921.75
2023-12-09T14:50:35.004Z,100920.56
2023-12-09T14:53:05.650Z,100919.13
2023-12-09T14:55:36.792Z,100920.47
2023-12-09T14:58:07.006Z,100909.34
2023-12-09T15:00:37.546Z,100920.19
2023-12-09T15:03:07.732Z,100905.69
2023-12-09T15:05:38.553Z,100899.66
2023-12-09T15:08:09.669Z,100911.56
2023-12-09T15:10:40.173Z,100920.38
2023-12-09T15:13:09.942Z,100920.00
2023-12-09T15:15:40.721Z,100923.63
2023-12-09T15:18:11.409Z,100926.94
2023-12-09T15:20:41.679Z,100923.34
2023-12-09T15:23:12.013Z,100922.06
2023-12-09T15:25:42.172Z,100924.97
2023-12-09T15:28:12.469Z,100924.69
2023-12-09T15:30:42.716Z,100926.34
2023-12-09T15:33:13.056Z,100933.50
2023-12-09T15:35:43.583Z,100934.44
2023-12-09T15:38:13.680Z,100935.41
2023-12-09T15:40:43.904Z,100935.56
2023-12-09T15:43:14.576Z,100929.34
2023-12-09T15:45:44.903Z,100917.41
2023-12-09T15:48:15.239Z,100933.22
2023-12-09T15:50:45.475Z,100922.84
2023-12-09T15:53:15.431Z,100913.75
2023-12-09T15:55:46.123Z,100920.88
2023-12-09T15:58:17.036Z,100926.13
2023-12-09T16:00:50.337Z,100918.88
2023-12-09T16:03:20.517Z,100917.63
2023-12-09T16:05:50.655Z,100904.41
2023-12-09T16:08:24.156Z,100912.13
2023-12-09T16:10:54.399Z,100917.75
2023-12-09T16:13:25.993Z,100915.28
2023-12-09T16:15:56.275Z,100918.25
2023-12-09T16:18:31.341Z,100898.97
2023-12-09T16:21:05.363Z,100906.59
2023-12-09T16:23:35.624Z,100905.38
2023-12-09T16:26:06.631Z,100901.38
2023-12-09T16:28:36.663Z,100902.25
2023-12-09T16:31:07.129Z,100887.34
2023-12-09T16:33:37.368Z,100896.66
2023-12-09T16:36:07.718Z,100879.03
2023-12-09T16:38:37.821Z,100877.38
2023-12-09T16:41:08.760Z,100880.72
2023-12-09T16:43:39.651Z,100879.09
2023-12-09T16:46:10.253Z,100877.84
2023-12-09T16:48:40.420Z,100877.41
2023-12-09T16:51:10.933Z,100872.03
2023-12-09T16:53:40.961Z,100881.63
2023-12-09T16:56:11.498Z,100872.47
2023-12-09T16:58:41.914Z,100860.03
2023-12-09T17:01:12.218Z,100864.22
2023-12-09T17:03:42.109Z,100876.47
2023-12-09T17:06:12.394Z,100860.06
2023-12-09T17:08:42.400Z,100855.97
2023-12-09T17:11:12.588Z,100869.41
2023-12-09T17:13:42.656Z,100863.41
2023-12-09T17:16:14.815Z,100862.16
2023-12-09T17:18:46.078Z,100864.66
2023-12-09T17:21:16.332Z,100844.75
2023-12-09T17:23:48.926Z,100854.28
2023-12-09T17:26:19.211Z,100849.34
2023-12-09T17:28:49.352Z,100841.44
2023-12-09T17:31:19.423Z,100840.22
2023-12-09T17:33:49.654Z,100845.63
2023-12-09T17:36:20.146Z,100843.94
2023-12-09T17:38:50.254Z,100839.78
2023-12-09T17:41:22.464Z,100838.09
2023-12-09T17:43:52.264Z,100844.84
2023-12-09T17:46:22.153Z,100839.34
2023-12-09T17:48:52.536Z,100833.13
2023-12-09T17:51:23.327Z,100834.38
2023-12-09T17:53:53.576Z,100838.13
2023-12-09T17:56:23.826Z,100813.22
2023-12-09T17:58:55.457Z,100831.91
2023-12-09T18:01:26.377Z,100819.44
2023-12-09T18:04:02.862Z,100814.88
2023-12-09T18:06:33.305Z,100820.06
2023-12-09T18:09:03.393Z,100818.03
2023-12-09T18:11:33.850Z,100814.25
2023-12-09T18:14:04.447Z,100813.63
2023-12-09T18:16:35.214Z,100810.72
2023-12-09T18:19:06.361Z,100790.00
2023-12-09T18:21:37.061Z,100810.13
2023-12-09T18:24:07.587Z,100798.28
2023-12-09T18:26:37.504Z,100802.03
2023-12-09T18:29:07.793Z,100794.94
2023-12-09T18:31:37.759Z,100794.31
2023-12-09T18:34:08.787Z,100795.81
2023-12-09T18:36:40.039Z,100787.06
2023-12-09T18:39:10.378Z,100790.81
2023-12-09T18:41:40.490Z,100793.72
2023-12-09T18:44:10.641Z,100785.84
2023-12-09T18:46:40.456Z,100775.91
2023-12-09T18:49:12.001Z,100788.16
2023-12-09T18:51:42.003Z,100782.31
2023-12-09T18:54:12.045Z,100787.53
2023-12-09T18:56:42.091Z,100779.63
2023-12-09T18:59:13.992Z,100785.00
2023-12-09T19:01:45.598Z,100785.66
2023-12-09T19:04:15.899Z,100776.28
2023-12-09T19:06:53.791Z,100787.06
2023-12-09T19:09:29.679Z,100759.25
2023-12-09T19:11:59.632Z,100775.06
2023-12-09T19:14:29.597Z,100779.59
2023-12-09T19:17:00.245Z,100778.19
2023-12-09T19:19:30.633Z,100779.59
2023-12-09T19:22:00.686Z,100772.53
2023-12-09T19:24:30.950Z,100771.75
2023-12-09T19:27:01.446Z,100779.19
2023-12-09T19:29:31.384Z,100777.53
2023-12-09T19:32:01.951Z,100776.91
2023-12-09T19:34:32.614Z,100782.72
2023-12-09T19:37:02.762Z,100791.66
2023-12-09T19:39:32.862Z,100787.50
2023-12-09T19:42:03.137Z,100777.13
2023-12-09T19:44:32.976Z,100782.09
2023-12-09T19:47:03.413Z,100785.03
2023-12-09T19:49:34.362Z,100783.78
2023-12-09T19:52:05.090Z,100776.31
2023-12-09T19:54:35.179Z,100768.00
2023-12-09T19:57:05.616Z,100782.13
2023-12-09T19:59:36.053Z,100785.00
2023-12-09T20:02:06.439Z,100774.44
2023-12-09T20:04:36.317Z,100769.88
2023-12-09T20:07:06.841Z,100765.50
2023-12-09T20:09:36.892Z,100775.47
2023-12-09T20:12:07.595Z,100767.56
2023-12-09T20:14:37.732Z,100783.97
2023-12-09T20:17:12.318Z,100767.38
2023-12-09T20:19:42.418Z,100780.69
2023-12-09T20:22:13.978Z,100789.59
2023-12-09T20:24:43.932Z,100789.16
2023-12-09T20:27:13.946Z,100796.25
2023-12-09T20:29:43.950Z,100794.97
2023-12-09T20:32:13.833Z,100795.63
2023-12-09T20:34:43.929Z,100799.56
2023-12-09T20:37:13.839Z,100784.38
2023-12-09T20:39:43.899Z,100798.72
2023-12-09T20:42:14.400Z,100798.91
2023-12-09T20:44:45.115Z,100797.06
2023-12-09T20:47:16.251Z,100768.78
2023-12-09T20:49:46.357Z,100791.25
2023-12-09T20:52:16.285Z,100788.53
2023-12-09T20:54:48.267Z,100783.38
2023-12-09T20:57:18.576Z,100785.84
2023-12-09T20:59:48.432Z,100784.19
2023-12-09T21:02:18.581Z,100787.50
2023-12-09T21:04:48.483Z,100783.78
2023-12-09T21:07:18.881Z,100787.72
2023-12-09T21:09:49.338Z,100790.63
2023-12-09T21:12:19.330Z,100779.16
2023-12-09T21:14:49.331Z,100782.94
2023-12-09T21:17:19.936Z,100775.41
2023-12-09T21:19:50.957Z,100756.31
2023-12-09T21:22:21.051Z,100762.41
2023-12-09T21:24:50.881Z,100763.38
2023-12-09T21:27:21.379Z,100760.50
2023-12-09T21:29:51.103Z,100765.03
2023-12-09T21:32:21.166Z,100772.94
2023-12-09T21:34:50.997Z,100761.72
2023-12-09T21:37:21.189Z,100783.72
2023-12-09T21:39:51.162Z,100790.38
2023-12-09T21:42:21.270Z,100788.91
2023-12-09T21:44:54.788Z,100787.66
2023-12-09T21:47:25.636Z,100805.31
2023-12-09T21:49:56.586Z,100815.06
2023-12-09T21:52:28.257Z,100809.84
2023-12-09T21:54:58.638Z,100814.66
2023-12-09T21:57:30.616Z,100812.97
2023-12-09T22:00:01.169Z,100821.06
2023-12-09T22:02:34.068Z,100807.16
2023-12-09T22:05:04.332Z,100822.09
2023-12-09T22:07:35.011Z,100817.13
2023-12-09T22:10:05.271Z,100824.81
2023-12-09T22:12:37.329Z,100819.81
2023-12-09T22:15:08.866Z,100819.81
2023-12-09T22:17:40.873Z,100818.38
2023-12-09T22:20:11.695Z,100824.81
2023-12-09T22:22:48.926Z,100825.22
2023-12-09T22:25:24.563Z,100826.44
2023-12-09T22:27:54.531Z,100821.88
2023-12-09T22:30:24.647Z,100825.63
2023-12-09T22:32:54.899Z,100816.06
2023-12-09T22:35:26.977Z,100837.66
2023-12-09T22:37:57.172Z,100824.75
2023-12-09T22:40:30.532Z,100835.56
2023-12-09T22:43:01.085Z,100838.47
2023-12-09T22:45:31.239Z,100842.81
2023-12-09T22:48:03.070Z,100841.34
2023-12-09T22:50:33.293Z,100846.34
2023-12-09T22:53:03.160Z,100850.69
2023-12-09T22:55:33.234Z,100859.63
2023-12-09T22:58:03.017Z,100847.16
2023-12-09T23:00:38.794Z,100855.88
2023-12-09T23:03:09.094Z,100852.00
2023-12-09T23:05:39.270Z,100834.91
2023-12-09T23:08:09.740Z,100873.34
2023-12-09T23:10:39.950Z,100861.00
2023-12-09T23:13:10.013Z,100885.13
2023-12-09T23:15:39.929Z,100876.41
2023-12-09T23:18:10.589Z,100889.31
2023-12-09T23:20:40.565Z,100880.53
2023-12-09T23:23:10.954Z,100869.53
2023-12-09T23:25:41.257Z,100892.56
2023-12-09T23:28:12.132Z,100898.19
2023-12-09T23:30:42.497Z,100895.50
2023-12-09T23:33:13.502Z,100894.66
2023-12-09T23:35:43.900Z,100902.34
2023-12-09T23:38:16.748Z,100895.88
2023-12-09T23:40:47.025Z,100911.53
2023-12-09T23:43:16.730Z,100908.38
2023-12-09T23:45:47.080Z,100908.00
2023-12-09T23:48:19.301Z,100906.78
2023-12-09T23:50:49.965Z,100829.13
2023-12-09T23:53:20.833Z,100904.41
2023-12-09T23:55:51.221Z,100921.91
2023-12-09T23:58:21.652Z,100925.03
